sensor_id;sensor_type;location;lat;lon;timestamp;P1;durP1;ratioP1;P2;durP2;ratioP2
53644;SDS011;39547;45.554;12.068;2022-11-06T00:00:56;37.08;;;20.50;;
53644;SDS011;39547;45.554;12.068;2022-11-06T00:06:57;34.70;;;19.40;;
53644;SDS011;39547;45.554;12.068;2022-11-06T00:12:58;33.00;;;19.30;;
53644;SDS011;39547;45.554;12.068;2022-11-06T00:19:00;30.67;;;17.05;;
53644;SDS011;39547;45.554;12.068;2022-11-06T00:25:03;31.00;;;18.05;;
53644;SDS011;39547;45.554;12.068;2022-11-06T00:31:06;28.58;;;15.88;;
53644;SDS011;39547;45.554;12.068;2022-11-06T00:37:09;31.30;;;17.15;;
53644;SDS011;39547;45.554;12.068;2022-11-06T00:43:10;32.25;;;17.30;;
53644;SDS011;39547;45.554;12.068;2022-11-06T00:49:12;30.85;;;16.58;;
53644;SDS011;39547;45.554;12.068;2022-11-06T00:55:13;30.50;;;16.65;;
53644;SDS011;39547;45.554;12.068;2022-11-06T01:01:15;27.60;;;15.70;;
53644;SDS011;39547;45.554;12.068;2022-11-06T01:07:21;28.67;;;15.45;;
53644;SDS011;39547;45.554;12.068;2022-11-06T01:13:23;26.50;;;15.02;;
53644;SDS011;39547;45.554;12.068;2022-11-06T01:19:25;27.38;;;14.18;;
53644;SDS011;39547;45.554;12.068;2022-11-06T01:25:26;28.25;;;14.63;;
53644;SDS011;39547;45.554;12.068;2022-11-06T01:31:29;25.10;;;13.75;;
53644;SDS011;39547;45.554;12.068;2022-11-06T01:37:31;24.33;;;13.85;;
53644;SDS011;39547;45.554;12.068;2022-11-06T01:43:49;29.75;;;16.10;;
53644;SDS011;39547;45.554;12.068;2022-11-06T01:49:52;28.15;;;14.80;;
53644;SDS011;39547;45.554;12.068;2022-11-06T01:55:57;26.95;;;15.25;;
53644;SDS011;39547;45.554;12.068;2022-11-06T02:02:04;29.85;;;16.17;;
53644;SDS011;39547;45.554;12.068;2022-11-06T02:08:06;26.50;;;15.38;;
53644;SDS011;39547;45.554;12.068;2022-11-06T02:14:19;28.58;;;14.90;;
53644;SDS011;39547;45.554;12.068;2022-11-06T02:33:02;26.48;;;15.13;;
53644;SDS011;39547;45.554;12.068;2022-11-06T02:39:41;24.35;;;13.20;;
53644;SDS011;39547;45.554;12.068;2022-11-06T02:45:55;25.38;;;13.50;;
53644;SDS011;39547;45.554;12.068;2022-11-06T02:58:51;26.63;;;14.10;;
53644;SDS011;39547;45.554;12.068;2022-11-06T03:11:14;24.30;;;12.65;;
53644;SDS011;39547;45.554;12.068;2022-11-06T03:17:46;23.67;;;11.85;;
53644;SDS011;39547;45.554;12.068;2022-11-06T03:24:18;21.48;;;10.75;;
53644;SDS011;39547;45.554;12.068;2022-11-06T03:30:21;24.17;;;13.15;;
53644;SDS011;39547;45.554;12.068;2022-11-06T03:36:35;24.15;;;12.10;;
53644;SDS011;39547;45.554;12.068;2022-11-06T03:42:44;22.25;;;11.52;;
53644;SDS011;39547;45.554;12.068;2022-11-06T03:48:48;21.50;;;11.40;;
53644;SDS011;39547;45.554;12.068;2022-11-06T03:55:04;22.75;;;11.90;;
53644;SDS011;39547;45.554;12.068;2022-11-06T04:01:18;22.52;;;12.35;;
53644;SDS011;39547;45.554;12.068;2022-11-06T04:07:26;21.67;;;10.93;;
53644;SDS011;39547;45.554;12.068;2022-11-06T04:13:33;22.70;;;11.55;;
53644;SDS011;39547;45.554;12.068;2022-11-06T04:19:59;21.65;;;11.68;;
53644;SDS011;39547;45.554;12.068;2022-11-06T04:26:05;21.77;;;11.35;;
53644;SDS011;39547;45.554;12.068;2022-11-06T04:45:25;24.88;;;11.98;;
53644;SDS011;39547;45.554;12.068;2022-11-06T04:51:32;23.10;;;11.30;;
53644;SDS011;39547;45.554;12.068;2022-11-06T04:57:36;21.45;;;10.57;;
53644;SDS011;39547;45.554;12.068;2022-11-06T05:03:38;22.05;;;10.90;;
53644;SDS011;39547;45.554;12.068;2022-11-06T05:09:39;23.40;;;11.95;;
53644;SDS011;39547;45.554;12.068;2022-11-06T05:15:41;20.58;;;10.38;;
53644;SDS011;39547;45.554;12.068;2022-11-06T05:21:43;21.35;;;10.80;;
53644;SDS011;39547;45.554;12.068;2022-11-06T05:28:04;21.15;;;9.68;;
53644;SDS011;39547;45.554;12.068;2022-11-06T05:34:06;22.65;;;10.75;;
53644;SDS011;39547;45.554;12.068;2022-11-06T05:40:08;20.95;;;9.93;;
53644;SDS011;39547;45.554;12.068;2022-11-06T05:46:10;19.85;;;9.55;;
53644;SDS011;39547;45.554;12.068;2022-11-06T05:52:11;19.35;;;8.88;;
53644;SDS011;39547;45.554;12.068;2022-11-06T05:58:13;17.38;;;7.93;;
53644;SDS011;39547;45.554;12.068;2022-11-06T06:04:14;17.75;;;7.90;;
53644;SDS011;39547;45.554;12.068;2022-11-06T06:10:16;17.55;;;7.70;;
53644;SDS011;39547;45.554;12.068;2022-11-06T06:16:17;16.75;;;7.43;;
53644;SDS011;39547;45.554;12.068;2022-11-06T06:22:19;16.40;;;6.78;;
53644;SDS011;39547;45.554;12.068;2022-11-06T06:28:20;16.08;;;6.90;;
53644;SDS011;39547;45.554;12.068;2022-11-06T06:34:21;15.00;;;6.28;;
53644;SDS011;39547;45.554;12.068;2022-11-06T06:40:23;14.07;;;5.90;;
53644;SDS011;39547;45.554;12.068;2022-11-06T06:46:26;14.30;;;5.90;;
53644;SDS011;39547;45.554;12.068;2022-11-06T06:52:28;15.23;;;6.03;;
53644;SDS011;39547;45.554;12.068;2022-11-06T06:58:30;15.00;;;5.78;;
53644;SDS011;39547;45.554;12.068;2022-11-06T07:04:32;13.90;;;5.53;;
53644;SDS011;39547;45.554;12.068;2022-11-06T07:10:34;13.15;;;5.07;;
53644;SDS011;39547;45.554;12.068;2022-11-06T07:16:35;13.23;;;5.32;;
53644;SDS011;39547;45.554;12.068;2022-11-06T07:22:36;14.30;;;5.70;;
53644;SDS011;39547;45.554;12.068;2022-11-06T07:28:38;14.43;;;5.90;;
53644;SDS011;39547;45.554;12.068;2022-11-06T07:34:40;14.40;;;5.80;;
53644;SDS011;39547;45.554;12.068;2022-11-06T07:40:41;13.70;;;5.57;;
53644;SDS011;39547;45.554;12.068;2022-11-06T07:46:43;14.95;;;5.43;;
53644;SDS011;39547;45.554;12.068;2022-11-06T07:52:44;13.30;;;4.85;;
53644;SDS011;39547;45.554;12.068;2022-11-06T07:58:46;12.80;;;4.78;;
53644;SDS011;39547;45.554;12.068;2022-11-06T08:04:47;12.50;;;4.35;;
53644;SDS011;39547;45.554;12.068;2022-11-06T08:10:48;12.32;;;4.28;;
53644;SDS011;39547;45.554;12.068;2022-11-06T08:16:51;11.88;;;4.18;;
53644;SDS011;39547;45.554;12.068;2022-11-06T08:22:56;12.07;;;3.80;;
53644;SDS011;39547;45.554;12.068;2022-11-06T08:29:02;11.80;;;3.80;;
53644;SDS011;39547;45.554;12.068;2022-11-06T08:35:03;11.80;;;3.20;;
53644;SDS011;39547;45.554;12.068;2022-11-06T08:41:06;11.80;;;3.35;;
53644;SDS011;39547;45.554;12.068;2022-11-06T08:47:08;10.68;;;3.15;;
53644;SDS011;39547;45.554;12.068;2022-11-06T08:53:10;10.60;;;3.10;;
53644;SDS011;39547;45.554;12.068;2022-11-06T08:59:12;10.48;;;2.88;;
53644;SDS011;39547;45.554;12.068;2022-11-06T09:05:13;11.52;;;2.80;;
53644;SDS011;39547;45.554;12.068;2022-11-06T09:11:14;10.30;;;2.70;;
53644;SDS011;39547;45.554;12.068;2022-11-06T09:17:16;9.65;;;2.50;;
53644;SDS011;39547;45.554;12.068;2022-11-06T09:23:23;9.50;;;2.47;;
53644;SDS011;39547;45.554;12.068;2022-11-06T09:29:24;10.27;;;2.40;;
53644;SDS011;39547;45.554;12.068;2022-11-06T09:35:26;8.30;;;2.33;;
53644;SDS011;39547;45.554;12.068;2022-11-06T09:41:33;8.90;;;2.30;;
53644;SDS011;39547;45.554;12.068;2022-11-06T09:47:42;8.85;;;2.30;;
53644;SDS011;39547;45.554;12.068;2022-11-06T09:53:53;9.00;;;2.38;;
53644;SDS011;39547;45.554;12.068;2022-11-06T10:00:01;8.88;;;2.40;;
53644;SDS011;39547;45.554;12.068;2022-11-06T10:06:05;9.00;;;2.40;;
53644;SDS011;39547;45.554;12.068;2022-11-06T10:12:15;5.97;;;1.90;;
53644;SDS011;39547;45.554;12.068;2022-11-06T10:37:39;9.27;;;2.42;;
53644;SDS011;39547;45.554;12.068;2022-11-06T10:50:03;9.32;;;2.33;;
53644;SDS011;39547;45.554;12.068;2022-11-06T10:56:18;7.80;;;2.00;;
53644;SDS011;39547;45.554;12.068;2022-11-06T11:02:41;8.82;;;2.20;;
53644;SDS011;39547;45.554;12.068;2022-11-06T11:08:48;8.73;;;2.30;;
53644;SDS011;39547;45.554;12.068;2022-11-06T11:21:06;8.77;;;2.20;;
53644;SDS011;39547;45.554;12.068;2022-11-06T11:27:16;7.32;;;2.28;;
53644;SDS011;39547;45.554;12.068;2022-11-06T11:33:19;6.80;;;2.10;;
53644;SDS011;39547;45.554;12.068;2022-11-06T11:39:25;6.90;;;2.17;;
53644;SDS011;39547;45.554;12.068;2022-11-06T11:45:29;8.85;;;2.38;;
53644;SDS011;39547;45.554;12.068;2022-11-06T11:51:33;9.55;;;2.30;;
53644;SDS011;39547;45.554;12.068;2022-11-06T11:57:41;8.45;;;2.35;;
53644;SDS011;39547;45.554;12.068;2022-11-06T12:03:45;8.90;;;2.30;;
53644;SDS011;39547;45.554;12.068;2022-11-06T12:09:50;7.93;;;2.20;;
53644;SDS011;39547;45.554;12.068;2022-11-06T12:16:05;9.48;;;2.58;;
53644;SDS011;39547;45.554;12.068;2022-11-06T12:22:18;9.38;;;2.40;;
53644;SDS011;39547;45.554;12.068;2022-11-06T12:28:25;9.05;;;2.30;;
53644;SDS011;39547;45.554;12.068;2022-11-06T12:53:35;7.80;;;2.20;;
53644;SDS011;39547;45.554;12.068;2022-11-06T13:26:15;9.30;;;2.30;;
53644;SDS011;39547;45.554;12.068;2022-11-06T13:32:18;9.43;;;2.50;;
53644;SDS011;39547;45.554;12.068;2022-11-06T13:38:26;9.60;;;2.50;;
53644;SDS011;39547;45.554;12.068;2022-11-06T13:44:29;10.63;;;2.50;;
53644;SDS011;39547;45.554;12.068;2022-11-06T14:10:23;9.63;;;2.40;;
53644;SDS011;39547;45.554;12.068;2022-11-06T14:16:37;9.70;;;2.60;;
53644;SDS011;39547;45.554;12.068;2022-11-06T14:22:41;9.82;;;2.40;;
53644;SDS011;39547;45.554;12.068;2022-11-06T14:28:43;9.95;;;2.60;;
53644;SDS011;39547;45.554;12.068;2022-11-06T14:34:44;9.77;;;2.30;;
53644;SDS011;39547;45.554;12.068;2022-11-06T14:40:45;9.00;;;2.30;;
53644;SDS011;39547;45.554;12.068;2022-11-06T14:46:51;10.63;;;2.22;;
53644;SDS011;39547;45.554;12.068;2022-11-06T14:59:35;8.98;;;2.17;;
53644;SDS011;39547;45.554;12.068;2022-11-06T15:05:39;9.10;;;2.10;;
53644;SDS011;39547;45.554;12.068;2022-11-06T15:17:42;9.70;;;2.50;;
53644;SDS011;39547;45.554;12.068;2022-11-06T15:30:03;8.57;;;2.30;;
53644;SDS011;39547;45.554;12.068;2022-11-06T15:36:06;9.93;;;2.40;;
53644;SDS011;39547;45.554;12.068;2022-11-06T15:42:14;9.95;;;2.38;;
53644;SDS011;39547;45.554;12.068;2022-11-06T15:48:21;9.60;;;2.40;;
53644;SDS011;39547;45.554;12.068;2022-11-06T15:54:29;10.45;;;2.50;;
53644;SDS011;39547;45.554;12.068;2022-11-06T16:00:32;9.40;;;2.45;;
53644;SDS011;39547;45.554;12.068;2022-11-06T16:06:36;12.70;;;4.00;;
53644;SDS011;39547;45.554;12.068;2022-11-06T16:12:39;12.77;;;3.90;;
53644;SDS011;39547;45.554;12.068;2022-11-06T16:18:41;13.48;;;4.00;;
53644;SDS011;39547;45.554;12.068;2022-11-06T16:24:49;12.80;;;3.95;;
53644;SDS011;39547;45.554;12.068;2022-11-06T16:30:57;12.35;;;3.70;;
53644;SDS011;39547;45.554;12.068;2022-11-06T16:37:11;12.90;;;4.20;;
53644;SDS011;39547;45.554;12.068;2022-11-06T16:43:31;13.00;;;4.20;;
53644;SDS011;39547;45.554;12.068;2022-11-06T16:49:33;12.60;;;4.28;;
53644;SDS011;39547;45.554;12.068;2022-11-06T16:55:36;13.98;;;4.40;;
53644;SDS011;39547;45.554;12.068;2022-11-06T17:01:42;13.73;;;4.65;;
53644;SDS011;39547;45.554;12.068;2022-11-06T17:07:46;15.65;;;6.25;;
53644;SDS011;39547;45.554;12.068;2022-11-06T17:13:49;17.33;;;7.22;;
53644;SDS011;39547;45.554;12.068;2022-11-06T17:19:51;17.88;;;7.10;;
53644;SDS011;39547;45.554;12.068;2022-11-06T17:25:53;23.70;;;7.97;;
53644;SDS011;39547;45.554;12.068;2022-11-06T17:31:57;19.15;;;8.60;;
53644;SDS011;39547;45.554;12.068;2022-11-06T17:37:58;24.17;;;10.73;;
53644;SDS011;39547;45.554;12.068;2022-11-06T17:44:04;22.92;;;11.52;;
53644;SDS011;39547;45.554;12.068;2022-11-06T17:50:06;23.80;;;12.38;;
53644;SDS011;39547;45.554;12.068;2022-11-06T17:56:08;25.95;;;13.70;;
53644;SDS011;39547;45.554;12.068;2022-11-06T18:02:11;28.92;;;14.75;;
53644;SDS011;39547;45.554;12.068;2022-11-06T18:08:14;27.63;;;15.30;;
53644;SDS011;39547;45.554;12.068;2022-11-06T18:14:16;29.20;;;15.27;;
53644;SDS011;39547;45.554;12.068;2022-11-06T18:20:18;27.05;;;14.48;;
53644;SDS011;39547;45.554;12.068;2022-11-06T18:26:20;26.58;;;14.30;;
53644;SDS011;39547;45.554;12.068;2022-11-06T18:32:22;27.20;;;14.30;;
53644;SDS011;39547;45.554;12.068;2022-11-06T18:38:23;28.20;;;14.85;;
53644;SDS011;39547;45.554;12.068;2022-11-06T18:44:24;33.40;;;17.70;;
53644;SDS011;39547;45.554;12.068;2022-11-06T18:50:26;32.88;;;17.10;;
53644;SDS011;39547;45.554;12.068;2022-11-06T18:56:28;31.73;;;17.17;;
53644;SDS011;39547;45.554;12.068;2022-11-06T19:02:29;34.35;;;18.15;;
53644;SDS011;39547;45.554;12.068;2022-11-06T19:08:31;32.08;;;17.48;;
53644;SDS011;39547;45.554;12.068;2022-11-06T19:14:32;32.50;;;18.35;;
53644;SDS011;39547;45.554;12.068;2022-11-06T19:20:34;38.60;;;21.20;;
53644;SDS011;39547;45.554;12.068;2022-11-06T19:26:38;39.38;;;21.30;;
53644;SDS011;39547;45.554;12.068;2022-11-06T19:32:40;35.47;;;19.67;;
53644;SDS011;39547;45.554;12.068;2022-11-06T19:38:41;34.88;;;18.83;;
53644;SDS011;39547;45.554;12.068;2022-11-06T19:44:43;34.72;;;19.08;;
53644;SDS011;39547;45.554;12.068;2022-11-06T19:50:46;33.15;;;17.65;;
53644;SDS011;39547;45.554;12.068;2022-11-06T19:56:51;31.63;;;17.55;;
53644;SDS011;39547;45.554;12.068;2022-11-06T20:02:52;31.27;;;17.73;;
53644;SDS011;39547;45.554;12.068;2022-11-06T20:08:54;29.73;;;16.63;;
53644;SDS011;39547;45.554;12.068;2022-11-06T20:14:55;31.83;;;16.33;;
53644;SDS011;39547;45.554;12.068;2022-11-06T20:21:00;30.48;;;15.90;;
53644;SDS011;39547;45.554;12.068;2022-11-06T20:27:03;30.80;;;15.82;;
53644;SDS011;39547;45.554;12.068;2022-11-06T20:33:04;29.63;;;16.45;;
53644;SDS011;39547;45.554;12.068;2022-11-06T20:39:06;31.45;;;16.75;;
53644;SDS011;39547;45.554;12.068;2022-11-06T20:45:07;32.22;;;16.95;;
53644;SDS011;39547;45.554;12.068;2022-11-06T20:51:13;29.88;;;16.00;;
53644;SDS011;39547;45.554;12.068;2022-11-06T20:57:21;31.48;;;16.60;;
53644;SDS011;39547;45.554;12.068;2022-11-06T21:03:22;30.58;;;16.73;;
53644;SDS011;39547;45.554;12.068;2022-11-06T21:09:24;29.17;;;16.00;;
53644;SDS011;39547;45.554;12.068;2022-11-06T21:15:25;32.22;;;17.85;;
53644;SDS011;39547;45.554;12.068;2022-11-06T21:21:27;37.03;;;20.88;;
53644;SDS011;39547;45.554;12.068;2022-11-06T21:27:32;34.42;;;18.85;;
53644;SDS011;39547;45.554;12.068;2022-11-06T21:33:34;34.65;;;19.60;;
53644;SDS011;39547;45.554;12.068;2022-11-06T21:39:35;35.72;;;19.63;;
53644;SDS011;39547;45.554;12.068;2022-11-06T21:45:37;35.70;;;19.70;;
53644;SDS011;39547;45.554;12.068;2022-11-06T21:51:38;38.17;;;20.70;;
53644;SDS011;39547;45.554;12.068;2022-11-06T21:57:39;38.42;;;20.67;;
53644;SDS011;39547;45.554;12.068;2022-11-06T22:03:41;35.95;;;19.83;;
53644;SDS011;39547;45.554;12.068;2022-11-06T22:09:42;35.30;;;20.13;;
53644;SDS011;39547;45.554;12.068;2022-11-06T22:15:44;35.60;;;19.77;;
53644;SDS011;39547;45.554;12.068;2022-11-06T22:21:45;35.97;;;19.00;;
53644;SDS011;39547;45.554;12.068;2022-11-06T22:27:46;34.00;;;19.45;;
53644;SDS011;39547;45.554;12.068;2022-11-06T22:33:48;33.72;;;18.15;;
53644;SDS011;39547;45.554;12.068;2022-11-06T22:39:50;32.83;;;18.48;;
53644;SDS011;39547;45.554;12.068;2022-11-06T22:45:51;39.65;;;22.67;;
53644;SDS011;39547;45.554;12.068;2022-11-06T22:51:58;40.38;;;23.17;;
53644;SDS011;39547;45.554;12.068;2022-11-06T22:58:00;38.38;;;22.17;;
53644;SDS011;39547;45.554;12.068;2022-11-06T23:04:02;41.53;;;23.23;;
53644;SDS011;39547;45.554;12.068;2022-11-06T23:10:05;39.55;;;21.70;;
53644;SDS011;39547;45.554;12.068;2022-11-06T23:16:08;40.30;;;23.33;;
53644;SDS011;39547;45.554;12.068;2022-11-06T23:22:11;38.60;;;22.05;;
53644;SDS011;39547;45.554;12.068;2022-11-06T23:28:31;39.08;;;22.10;;
53644;SDS011;39547;45.554;12.068;2022-11-06T23:34:32;41.03;;;23.38;;
53644;SDS011;39547;45.554;12.068;2022-11-06T23:40:34;40.10;;;23.83;;
53644;SDS011;39547;45.554;12.068;2022-11-06T23:46:35;42.33;;;25.02;;
53644;SDS011;39547;45.554;12.068;2022-11-06T23:52:37;37.78;;;23.20;;
53644;SDS011;39547;45.554;12.068;2022-11-06T23:58:39;37.15;;;21.67;;
